< Typhoon 197107 1971 Season Typhoon 197109 >
Typhoon 197108 (DINAH)
General InformationTrack Information on Google Maps || Disaster Info.ResourceGoogle EarthGE AnimationAtom FeedGeoJSON
Detalied Best Track (Time Zone = UTC)
Year Month Day Hour Lat. Long. Pressure (hPa) Wind (kt) Class Image Chart
1971 5 23 06 8.8 140.0 1006 0 2 -- Chart
1971 5 23 12 9.3 138.7 1007 0 2 -- Chart
1971 5 23 18 9.7 137.4 1006 0 2 -- Chart
1971 5 24 00 10.2 136.2 1006 0 2 -- Chart
1971 5 24 06 10.4 134.9 1004 0 2 -- Chart
1971 5 24 12 10.7 133.5 1004 0 2 -- Chart
1971 5 24 18 11.3 132.0 1004 0 2 -- Chart
1971 5 25 00 11.6 130.5 1000 0 2 -- Chart
1971 5 25 06 12.0 129.0 998 0 9 -- Chart
1971 5 25 12 12.1 127.7 985 0 9 -- Chart
1971 5 25 18 12.2 126.4 970 0 9 -- Chart
1971 5 26 00 12.5 125.1 965 0 9 -- Chart
1971 5 26 06 13.2 123.5 960 0 9 -- Chart
1971 5 26 12 13.5 122.1 970 0 9 -- Chart
1971 5 26 18 13.8 120.7 978 0 9 -- Chart
1971 5 27 00 14.2 119.2 985 0 9 -- Chart
1971 5 27 06 14.8 118.0 990 0 9 -- Chart
1971 5 27 12 15.8 116.8 980 0 9 -- Chart
1971 5 27 18 16.5 115.5 980 0 9 -- Chart
1971 5 28 00 17.0 114.3 985 0 9 -- Chart
1971 5 28 06 17.7 113.2 990 0 9 -- Chart
1971 5 28 12 18.0 112.5 995 0 9 -- Chart
1971 5 28 18 18.5 111.6 996 0 9 -- Chart
1971 5 29 00 19.0 110.5 996 0 9 -- Chart
1971 5 29 06 19.2 109.9 998 0 9 -- Chart
1971 5 29 12 19.4 109.4 998 0 9 -- Chart
1971 5 29 18 19.8 108.8 998 0 9 -- Chart
1971 5 30 00 20.4 108.3 998 0 9 -- Chart
1971 5 30 06 21.0 108.0 1000 0 9 -- Chart
1971 5 30 12 21.5 108.0 1002 0 2 -- Chart
1971 5 30 18 22.0 108.0 1006 0 2 -- Chart
1971 5 31 00 22.7 108.5 1006 0 2 -- Chart
Japan Meteorological Agency Best Track Data | Correction Date : 1989-06-01
< Typhoon 197107 1971 Season Typhoon 197109 >

Help